sensor_id;sensor_type;location;lat;lon;timestamp;temperature;humidity
14682;DHT22;7429;52.498;13.480;2022-11-10T00:01:44;12.30;99.90
14682;DHT22;7429;52.498;13.480;2022-11-10T00:05:08;12.30;99.90
14682;DHT22;7429;52.498;13.480;2022-11-10T00:08:29;12.40;99.90
14682;DHT22;7429;52.498;13.480;2022-11-10T00:11:51;12.50;99.90
14682;DHT22;7429;52.498;13.480;2022-11-10T00:15:13;12.40;99.90
14682;DHT22;7429;52.498;13.480;2022-11-10T00:18:53;12.40;99.90
14682;DHT22;7429;52.498;13.480;2022-11-10T00:22:18;12.30;99.90
14682;DHT22;7429;52.498;13.480;2022-11-10T00:25:45;12.20;99.90
14682;DHT22;7429;52.498;13.480;2022-11-10T00:29:06;12.20;99.90
14682;DHT22;7429;52.498;13.480;2022-11-10T00:32:28;12.10;99.90
14682;DHT22;7429;52.498;13.480;2022-11-10T00:35:51;12.00;99.90
14682;DHT22;7429;52.498;13.480;2022-11-10T00:39:13;11.90;99.90
14682;DHT22;7429;52.498;13.480;2022-11-10T00:42:38;11.90;99.90
14682;DHT22;7429;52.498;13.480;2022-11-10T00:46:00;11.90;99.90
14682;DHT22;7429;52.498;13.480;2022-11-10T00:49:22;12.00;99.90
14682;DHT22;7429;52.498;13.480;2022-11-10T00:52:44;12.10;99.90
14682;DHT22;7429;52.498;13.480;2022-11-10T00:56:07;12.20;99.90
14682;DHT22;7429;52.498;13.480;2022-11-10T00:59:28;12.20;99.90
14682;DHT22;7429;52.498;13.480;2022-11-10T01:02:49;12.30;99.90
14682;DHT22;7429;52.498;13.480;2022-11-10T01:06:14;12.40;99.90
14682;DHT22;7429;52.498;13.480;2022-11-10T01:09:36;12.50;99.90
14682;DHT22;7429;52.498;13.480;2022-11-10T01:12:59;12.50;99.90
14682;DHT22;7429;52.498;13.480;2022-11-10T01:16:23;12.50;99.90
14682;DHT22;7429;52.498;13.480;2022-11-10T01:19:46;12.50;99.90
14682;DHT22;7429;52.498;13.480;2022-11-10T01:23:09;12.50;99.90
14682;DHT22;7429;52.498;13.480;2022-11-10T01:26:31;12.50;99.90
14682;DHT22;7429;52.498;13.480;2022-11-10T01:29:54;12.50;99.90
14682;DHT22;7429;52.498;13.480;2022-11-10T01:33:15;12.40;99.90
14682;DHT22;7429;52.498;13.480;2022-11-10T01:36:38;12.40;99.90
14682;DHT22;7429;52.498;13.480;2022-11-10T01:40:00;12.40;99.90
14682;DHT22;7429;52.498;13.480;2022-11-10T01:43:23;12.40;99.90
14682;DHT22;7429;52.498;13.480;2022-11-10T01:46:46;12.20;99.90
14682;DHT22;7429;52.498;13.480;2022-11-10T01:50:08;12.20;99.90
14682;DHT22;7429;52.498;13.480;2022-11-10T01:53:31;12.20;99.90
14682;DHT22;7429;52.498;13.480;2022-11-10T01:56:57;12.20;99.90
14682;DHT22;7429;52.498;13.480;2022-11-10T02:00:22;12.20;99.90
14682;DHT22;7429;52.498;13.480;2022-11-10T02:03:48;12.10;99.90
14682;DHT22;7429;52.498;13.480;2022-11-10T02:07:11;12.10;99.90
14682;DHT22;7429;52.498;13.480;2022-11-10T02:10:33;12.10;99.90
14682;DHT22;7429;52.498;13.480;2022-11-10T02:13:57;12.10;99.90
14682;DHT22;7429;52.498;13.480;2022-11-10T02:17:19;12.10;99.90
14682;DHT22;7429;52.498;13.480;2022-11-10T02:20:44;12.00;99.90
14682;DHT22;7429;52.498;13.480;2022-11-10T02:24:07;12.00;99.90
14682;DHT22;7429;52.498;13.480;2022-11-10T02:27:29;12.00;99.90
14682;DHT22;7429;52.498;13.480;2022-11-10T02:30:53;12.00;99.90
14682;DHT22;7429;52.498;13.480;2022-11-10T02:34:16;12.00;99.90
14682;DHT22;7429;52.498;13.480;2022-11-10T02:37:41;11.90;99.90
14682;DHT22;7429;52.498;13.480;2022-11-10T02:41:03;11.90;99.90
14682;DHT22;7429;52.498;13.480;2022-11-10T02:44:24;12.00;99.90
14682;DHT22;7429;52.498;13.480;2022-11-10T02:47:46;12.00;99.90
14682;DHT22;7429;52.498;13.480;2022-11-10T02:51:08;12.00;99.90
14682;DHT22;7429;52.498;13.480;2022-11-10T02:54:31;12.00;99.90
14682;DHT22;7429;52.498;13.480;2022-11-10T02:57:55;12.10;99.90
14682;DHT22;7429;52.498;13.480;2022-11-10T03:01:19;12.10;99.90
14682;DHT22;7429;52.498;13.480;2022-11-10T03:04:41;12.10;99.90
14682;DHT22;7429;52.498;13.480;2022-11-10T03:08:04;12.10;99.90
14682;DHT22;7429;52.498;13.480;2022-11-10T03:11:27;12.10;99.90
14682;DHT22;7429;52.498;13.480;2022-11-10T03:14:51;12.20;99.90
14682;DHT22;7429;52.498;13.480;2022-11-10T03:18:13;12.30;99.90
14682;DHT22;7429;52.498;13.480;2022-11-10T03:21:35;12.30;99.90
14682;DHT22;7429;52.498;13.480;2022-11-10T03:24:57;12.40;99.90
14682;DHT22;7429;52.498;13.480;2022-11-10T03:28:22;12.40;99.90
14682;DHT22;7429;52.498;13.480;2022-11-10T03:31:44;12.30;99.90
14682;DHT22;7429;52.498;13.480;2022-11-10T03:35:06;12.40;99.90
14682;DHT22;7429;52.498;13.480;2022-11-10T03:38:28;12.40;99.90
14682;DHT22;7429;52.498;13.480;2022-11-10T03:41:50;12.40;99.90
14682;DHT22;7429;52.498;13.480;2022-11-10T03:45:14;12.30;99.90
14682;DHT22;7429;52.498;13.480;2022-11-10T03:48:36;12.40;99.90
14682;DHT22;7429;52.498;13.480;2022-11-10T03:51:57;12.40;99.90
14682;DHT22;7429;52.498;13.480;2022-11-10T03:55:19;12.30;99.90
14682;DHT22;7429;52.498;13.480;2022-11-10T03:58:43;12.30;99.90
14682;DHT22;7429;52.498;13.480;2022-11-10T04:02:06;12.30;99.90
14682;DHT22;7429;52.498;13.480;2022-11-10T04:05:29;12.20;99.90
14682;DHT22;7429;52.498;13.480;2022-11-10T04:09:08;12.30;99.90
14682;DHT22;7429;52.498;13.480;2022-11-10T04:12:30;12.20;99.90
14682;DHT22;7429;52.498;13.480;2022-11-10T04:16:10;12.20;99.90
14682;DHT22;7429;52.498;13.480;2022-11-10T04:19:33;12.20;99.90
14682;DHT22;7429;52.498;13.480;2022-11-10T04:22:54;12.10;99.90
14682;DHT22;7429;52.498;13.480;2022-11-10T04:26:34;12.10;99.90
14682;DHT22;7429;52.498;13.480;2022-11-10T04:29:58;12.10;99.90
14682;DHT22;7429;52.498;13.480;2022-11-10T04:33:20;12.10;99.90
14682;DHT22;7429;52.498;13.480;2022-11-10T04:36:44;12.10;99.90
14682;DHT22;7429;52.498;13.480;2022-11-10T04:40:07;12.10;99.90
14682;DHT22;7429;52.498;13.480;2022-11-10T04:43:30;12.00;99.90
14682;DHT22;7429;52.498;13.480;2022-11-10T04:46:52;11.90;99.90
14682;DHT22;7429;52.498;13.480;2022-11-10T04:50:14;11.90;99.90
14682;DHT22;7429;52.498;13.480;2022-11-10T04:53:37;11.90;99.90
14682;DHT22;7429;52.498;13.480;2022-11-10T04:56:59;11.80;99.90
14682;DHT22;7429;52.498;13.480;2022-11-10T05:00:20;11.80;99.90
14682;DHT22;7429;52.498;13.480;2022-11-10T05:03:42;11.70;99.90
14682;DHT22;7429;52.498;13.480;2022-11-10T05:07:07;11.70;99.90
14682;DHT22;7429;52.498;13.480;2022-11-10T05:10:30;11.70;99.90
14682;DHT22;7429;52.498;13.480;2022-11-10T05:13:52;11.60;99.90
14682;DHT22;7429;52.498;13.480;2022-11-10T05:17:13;11.60;99.90
14682;DHT22;7429;52.498;13.480;2022-11-10T05:20:35;11.60;99.90
14682;DHT22;7429;52.498;13.480;2022-11-10T05:23:56;11.50;99.90
14682;DHT22;7429;52.498;13.480;2022-11-10T05:27:20;11.50;99.90
14682;DHT22;7429;52.498;13.480;2022-11-10T05:30:42;11.40;99.90
14682;DHT22;7429;52.498;13.480;2022-11-10T05:34:04;11.40;99.90
14682;DHT22;7429;52.498;13.480;2022-11-10T05:37:25;11.30;99.90
14682;DHT22;7429;52.498;13.480;2022-11-10T05:40:47;11.30;99.90
14682;DHT22;7429;52.498;13.480;2022-11-10T05:44:10;11.30;99.90
14682;DHT22;7429;52.498;13.480;2022-11-10T05:47:31;11.20;99.90
14682;DHT22;7429;52.498;13.480;2022-11-10T05:50:52;11.10;99.90
14682;DHT22;7429;52.498;13.480;2022-11-10T05:54:15;11.10;99.90
14682;DHT22;7429;52.498;13.480;2022-11-10T05:57:37;11.10;99.90
14682;DHT22;7429;52.498;13.480;2022-11-10T06:00:59;11.00;99.90
14682;DHT22;7429;52.498;13.480;2022-11-10T06:04:21;11.00;99.90
14682;DHT22;7429;52.498;13.480;2022-11-10T06:07:43;11.10;99.90
14682;DHT22;7429;52.498;13.480;2022-11-10T06:11:04;11.00;99.90
14682;DHT22;7429;52.498;13.480;2022-11-10T06:14:26;11.10;99.90
14682;DHT22;7429;52.498;13.480;2022-11-10T06:17:49;11.10;99.90
14682;DHT22;7429;52.498;13.480;2022-11-10T06:21:10;11.10;99.90
14682;DHT22;7429;52.498;13.480;2022-11-10T06:24:32;11.10;99.90
14682;DHT22;7429;52.498;13.480;2022-11-10T06:27:53;11.00;99.90
14682;DHT22;7429;52.498;13.480;2022-11-10T06:31:15;11.00;99.90
14682;DHT22;7429;52.498;13.480;2022-11-10T06:34:38;11.00;99.90
14682;DHT22;7429;52.498;13.480;2022-11-10T06:38:00;10.90;99.90
14682;DHT22;7429;52.498;13.480;2022-11-10T06:41:23;10.80;99.90
14682;DHT22;7429;52.498;13.480;2022-11-10T06:44:45;10.80;99.90
14682;DHT22;7429;52.498;13.480;2022-11-10T06:48:10;10.80;99.90
14682;DHT22;7429;52.498;13.480;2022-11-10T06:51:34;10.80;99.90
14682;DHT22;7429;52.498;13.480;2022-11-10T06:54:56;10.70;99.90
14682;DHT22;7429;52.498;13.480;2022-11-10T06:58:18;10.60;99.90
14682;DHT22;7429;52.498;13.480;2022-11-10T07:01:39;10.60;99.90
14682;DHT22;7429;52.498;13.480;2022-11-10T07:05:04;10.60;99.90
14682;DHT22;7429;52.498;13.480;2022-11-10T07:08:28;10.50;99.90
14682;DHT22;7429;52.498;13.480;2022-11-10T07:11:50;10.50;99.90
14682;DHT22;7429;52.498;13.480;2022-11-10T07:15:12;10.50;99.90
14682;DHT22;7429;52.498;13.480;2022-11-10T07:18:33;10.50;99.90
14682;DHT22;7429;52.498;13.480;2022-11-10T07:21:56;10.60;99.90
14682;DHT22;7429;52.498;13.480;2022-11-10T07:25:19;10.60;99.90
14682;DHT22;7429;52.498;13.480;2022-11-10T07:28:40;10.70;99.90
14682;DHT22;7429;52.498;13.480;2022-11-10T07:32:02;10.80;99.90
14682;DHT22;7429;52.498;13.480;2022-11-10T07:35:24;10.90;99.90
14682;DHT22;7429;52.498;13.480;2022-11-10T07:38:47;10.90;99.90
14682;DHT22;7429;52.498;13.480;2022-11-10T07:42:10;11.00;99.90
14682;DHT22;7429;52.498;13.480;2022-11-10T07:45:32;11.00;99.90
14682;DHT22;7429;52.498;13.480;2022-11-10T07:48:54;11.10;99.90
14682;DHT22;7429;52.498;13.480;2022-11-10T07:52:16;11.10;99.90
14682;DHT22;7429;52.498;13.480;2022-11-10T07:55:38;11.10;99.90
14682;DHT22;7429;52.498;13.480;2022-11-10T07:59:02;11.00;99.90
14682;DHT22;7429;52.498;13.480;2022-11-10T08:02:24;11.10;99.90
14682;DHT22;7429;52.498;13.480;2022-11-10T08:05:46;11.20;99.90
14682;DHT22;7429;52.498;13.480;2022-11-10T08:09:08;11.20;99.90
14682;DHT22;7429;52.498;13.480;2022-11-10T08:12:30;11.30;99.90
14682;DHT22;7429;52.498;13.480;2022-11-10T08:15:56;11.40;99.90
14682;DHT22;7429;52.498;13.480;2022-11-10T08:19:18;11.40;99.90
14682;DHT22;7429;52.498;13.480;2022-11-10T08:22:40;11.50;99.90
14682;DHT22;7429;52.498;13.480;2022-11-10T08:26:03;11.60;99.90
14682;DHT22;7429;52.498;13.480;2022-11-10T08:29:24;11.60;99.90
14682;DHT22;7429;52.498;13.480;2022-11-10T08:32:48;11.80;99.90
14682;DHT22;7429;52.498;13.480;2022-11-10T08:36:09;11.90;99.90
14682;DHT22;7429;52.498;13.480;2022-11-10T08:39:30;12.00;99.90
14682;DHT22;7429;52.498;13.480;2022-11-10T08:43:00;12.10;99.90
14682;DHT22;7429;52.498;13.480;2022-11-10T08:46:22;12.10;99.90
14682;DHT22;7429;52.498;13.480;2022-11-10T08:49:45;12.20;99.90
14682;DHT22;7429;52.498;13.480;2022-11-10T08:53:09;12.20;99.90
14682;DHT22;7429;52.498;13.480;2022-11-10T08:56:32;12.30;99.90
14682;DHT22;7429;52.498;13.480;2022-11-10T08:59:54;12.30;99.90
14682;DHT22;7429;52.498;13.480;2022-11-10T09:03:17;12.40;99.90
14682;DHT22;7429;52.498;13.480;2022-11-10T09:06:41;12.50;99.90
14682;DHT22;7429;52.498;13.480;2022-11-10T09:10:04;12.50;99.90
14682;DHT22;7429;52.498;13.480;2022-11-10T09:13:27;12.50;99.90
14682;DHT22;7429;52.498;13.480;2022-11-10T09:16:50;12.50;99.90
14682;DHT22;7429;52.498;13.480;2022-11-10T09:20:11;12.60;99.90
14682;DHT22;7429;52.498;13.480;2022-11-10T09:23:35;12.70;99.90
14682;DHT22;7429;52.498;13.480;2022-11-10T09:26:56;12.70;99.90
14682;DHT22;7429;52.498;13.480;2022-11-10T09:30:18;12.70;99.90
14682;DHT22;7429;52.498;13.480;2022-11-10T09:33:40;12.80;99.90
14682;DHT22;7429;52.498;13.480;2022-11-10T09:37:02;12.80;99.90
14682;DHT22;7429;52.498;13.480;2022-11-10T09:40:30;12.90;99.90
14682;DHT22;7429;52.498;13.480;2022-11-10T09:44:01;12.90;99.90
14682;DHT22;7429;52.498;13.480;2022-11-10T09:47:33;12.90;99.90
14682;DHT22;7429;52.498;13.480;2022-11-10T09:51:20;13.00;99.90
14682;DHT22;7429;52.498;13.480;2022-11-10T09:54:50;13.00;99.90
14682;DHT22;7429;52.498;13.480;2022-11-10T09:58:15;12.90;99.90
14682;DHT22;7429;52.498;13.480;2022-11-10T10:01:44;13.00;99.90
14682;DHT22;7429;52.498;13.480;2022-11-10T10:05:38;13.00;99.90
14682;DHT22;7429;52.498;13.480;2022-11-10T10:09:14;13.00;99.90
14682;DHT22;7429;52.498;13.480;2022-11-10T10:12:51;13.10;99.90
14682;DHT22;7429;52.498;13.480;2022-11-10T10:16:27;13.10;99.90
14682;DHT22;7429;52.498;13.480;2022-11-10T10:19:59;13.20;99.90
14682;DHT22;7429;52.498;13.480;2022-11-10T10:23:27;13.20;99.90
14682;DHT22;7429;52.498;13.480;2022-11-10T10:27:18;13.30;99.90
14682;DHT22;7429;52.498;13.480;2022-11-10T10:30:42;13.40;99.90
14682;DHT22;7429;52.498;13.480;2022-11-10T10:34:11;13.40;99.90
14682;DHT22;7429;52.498;13.480;2022-11-10T10:37:40;13.50;99.90
14682;DHT22;7429;52.498;13.480;2022-11-10T10:41:11;13.50;99.90
14682;DHT22;7429;52.498;13.480;2022-11-10T10:45:11;13.60;99.90
14682;DHT22;7429;52.498;13.480;2022-11-10T10:48:33;13.80;99.90
14682;DHT22;7429;52.498;13.480;2022-11-10T10:52:04;13.90;99.90
14682;DHT22;7429;52.498;13.480;2022-11-10T10:55:28;14.00;99.90
14682;DHT22;7429;52.498;13.480;2022-11-10T10:58:52;14.00;99.90
14682;DHT22;7429;52.498;13.480;2022-11-10T11:02:25;14.00;99.90
14682;DHT22;7429;52.498;13.480;2022-11-10T11:06:03;14.00;99.90
14682;DHT22;7429;52.498;13.480;2022-11-10T11:09:29;14.10;99.90
14682;DHT22;7429;52.498;13.480;2022-11-10T11:13:12;14.10;99.90
14682;DHT22;7429;52.498;13.480;2022-11-10T11:16:44;14.10;99.90
14682;DHT22;7429;52.498;13.480;2022-11-10T11:20:12;14.10;99.90
14682;DHT22;7429;52.498;13.480;2022-11-10T11:23:49;14.30;99.90
14682;DHT22;7429;52.498;13.480;2022-11-10T11:27:24;14.70;99.90
14682;DHT22;7429;52.498;13.480;2022-11-10T11:30:58;14.80;99.90
14682;DHT22;7429;52.498;13.480;2022-11-10T11:34:29;14.80;99.90
14682;DHT22;7429;52.498;13.480;2022-11-10T11:38:01;14.60;99.90
14682;DHT22;7429;52.498;13.480;2022-11-10T11:41:34;14.40;99.90
14682;DHT22;7429;52.498;13.480;2022-11-10T11:45:10;14.40;99.90
14682;DHT22;7429;52.498;13.480;2022-11-10T11:48:47;14.40;99.90
14682;DHT22;7429;52.498;13.480;2022-11-10T11:52:17;14.20;99.90
14682;DHT22;7429;52.498;13.480;2022-11-10T11:55:54;14.20;99.90
14682;DHT22;7429;52.498;13.480;2022-11-10T11:59:37;14.10;99.90
14682;DHT22;7429;52.498;13.480;2022-11-10T12:03:24;14.10;99.90
14682;DHT22;7429;52.498;13.480;2022-11-10T12:07:00;14.20;99.90
14682;DHT22;7429;52.498;13.480;2022-11-10T12:10:35;14.40;99.90
14682;DHT22;7429;52.498;13.480;2022-11-10T12:14:12;14.70;99.90
14682;DHT22;7429;52.498;13.480;2022-11-10T12:17:45;14.80;99.90
14682;DHT22;7429;52.498;13.480;2022-11-10T12:21:21;14.80;99.90
14682;DHT22;7429;52.498;13.480;2022-11-10T12:24:51;14.80;99.90
14682;DHT22;7429;52.498;13.480;2022-11-10T12:28:23;14.70;99.90
14682;DHT22;7429;52.498;13.480;2022-11-10T12:31:46;14.60;99.90
14682;DHT22;7429;52.498;13.480;2022-11-10T12:35:17;14.60;99.90
14682;DHT22;7429;52.498;13.480;2022-11-10T12:38:47;14.60;99.90
14682;DHT22;7429;52.498;13.480;2022-11-10T12:42:21;14.60;99.90
14682;DHT22;7429;52.498;13.480;2022-11-10T12:45:45;14.60;99.90
14682;DHT22;7429;52.498;13.480;2022-11-10T12:49:16;14.70;99.90
14682;DHT22;7429;52.498;13.480;2022-11-10T12:52:42;14.70;99.90
14682;DHT22;7429;52.498;13.480;2022-11-10T12:56:11;14.80;99.90
14682;DHT22;7429;52.498;13.480;2022-11-10T12:59:37;14.80;99.90
14682;DHT22;7429;52.498;13.480;2022-11-10T13:02:59;14.70;99.90
14682;DHT22;7429;52.498;13.480;2022-11-10T13:06:26;14.70;99.90
14682;DHT22;7429;52.498;13.480;2022-11-10T13:09:49;14.70;99.90
14682;DHT22;7429;52.498;13.480;2022-11-10T13:13:13;14.70;99.90
14682;DHT22;7429;52.498;13.480;2022-11-10T13:16:49;14.80;99.90
14682;DHT22;7429;52.498;13.480;2022-11-10T13:20:44;14.80;99.90
14682;DHT22;7429;52.498;13.480;2022-11-10T13:24:21;14.70;99.90
14682;DHT22;7429;52.498;13.480;2022-11-10T13:27:50;14.80;99.90
14682;DHT22;7429;52.498;13.480;2022-11-10T13:31:49;14.90;99.90
14682;DHT22;7429;52.498;13.480;2022-11-10T13:35:43;15.00;99.90
14682;DHT22;7429;52.498;13.480;2022-11-10T13:39:20;15.10;99.90
14682;DHT22;7429;52.498;13.480;2022-11-10T13:42:43;15.00;99.90
14682;DHT22;7429;52.498;13.480;2022-11-10T13:46:06;15.00;99.90
14682;DHT22;7429;52.498;13.480;2022-11-10T13:49:39;15.00;99.90
14682;DHT22;7429;52.498;13.480;2022-11-10T13:53:20;14.80;99.90
14682;DHT22;7429;52.498;13.480;2022-11-10T13:56:58;14.90;99.90
14682;DHT22;7429;52.498;13.480;2022-11-10T14:00:27;14.80;99.90
14682;DHT22;7429;52.498;13.480;2022-11-10T14:03:57;14.80;99.90
14682;DHT22;7429;52.498;13.480;2022-11-10T14:07:23;14.60;99.90
14682;DHT22;7429;52.498;13.480;2022-11-10T14:10:49;14.60;99.90
14682;DHT22;7429;52.498;13.480;2022-11-10T14:14:15;14.70;99.90
14682;DHT22;7429;52.498;13.480;2022-11-10T14:17:42;14.60;99.90
14682;DHT22;7429;52.498;13.480;2022-11-10T14:21:05;14.60;99.90
14682;DHT22;7429;52.498;13.480;2022-11-10T14:24:35;14.60;99.90
14682;DHT22;7429;52.498;13.480;2022-11-10T14:27:58;14.60;99.90
14682;DHT22;7429;52.498;13.480;2022-11-10T14:31:22;14.50;99.90
14682;DHT22;7429;52.498;13.480;2022-11-10T14:34:47;14.40;99.90
14682;DHT22;7429;52.498;13.480;2022-11-10T14:38:16;14.40;99.90
14682;DHT22;7429;52.498;13.480;2022-11-10T14:41:47;14.40;99.90
14682;DHT22;7429;52.498;13.480;2022-11-10T14:45:14;14.30;99.90
14682;DHT22;7429;52.498;13.480;2022-11-10T14:48:38;14.30;99.90
14682;DHT22;7429;52.498;13.480;2022-11-10T14:52:02;14.30;99.90
14682;DHT22;7429;52.498;13.480;2022-11-10T14:55:27;14.30;99.90
14682;DHT22;7429;52.498;13.480;2022-11-10T14:58:51;14.20;99.90
14682;DHT22;7429;52.498;13.480;2022-11-10T15:02:15;14.30;99.90
14682;DHT22;7429;52.498;13.480;2022-11-10T15:05:38;14.20;99.90
14682;DHT22;7429;52.498;13.480;2022-11-10T15:09:11;14.20;99.90
14682;DHT22;7429;52.498;13.480;2022-11-10T15:12:33;14.20;99.90
14682;DHT22;7429;52.498;13.480;2022-11-10T15:16:22;14.20;99.90
14682;DHT22;7429;52.498;13.480;2022-11-10T15:19:52;14.20;99.90
14682;DHT22;7429;52.498;13.480;2022-11-10T15:23:20;14.10;99.90
14682;DHT22;7429;52.498;13.480;2022-11-10T15:26:46;14.00;99.90
14682;DHT22;7429;52.498;13.480;2022-11-10T15:30:20;13.90;99.90
14682;DHT22;7429;52.498;13.480;2022-11-10T15:33:46;13.80;99.90
14682;DHT22;7429;52.498;13.480;2022-11-10T15:37:11;13.80;99.90
14682;DHT22;7429;52.498;13.480;2022-11-10T15:40:56;13.70;99.90
14682;DHT22;7429;52.498;13.480;2022-11-10T15:44:26;13.70;99.90
14682;DHT22;7429;52.498;13.480;2022-11-10T15:47:48;13.60;99.90
14682;DHT22;7429;52.498;13.480;2022-11-10T15:51:13;13.50;99.90
14682;DHT22;7429;52.498;13.480;2022-11-10T15:54:43;13.50;99.90
14682;DHT22;7429;52.498;13.480;2022-11-10T15:58:10;13.40;99.90
14682;DHT22;7429;52.498;13.480;2022-11-10T16:01:32;13.20;99.90
14682;DHT22;7429;52.498;13.480;2022-11-10T16:04:55;13.00;99.90
14682;DHT22;7429;52.498;13.480;2022-11-10T16:08:21;12.80;99.90
14682;DHT22;7429;52.498;13.480;2022-11-10T16:11:44;12.60;99.90
14682;DHT22;7429;52.498;13.480;2022-11-10T16:15:13;12.40;99.90
14682;DHT22;7429;52.498;13.480;2022-11-10T16:18:39;12.30;99.90
14682;DHT22;7429;52.498;13.480;2022-11-10T16:22:03;12.20;99.90
14682;DHT22;7429;52.498;13.480;2022-11-10T16:25:26;12.10;99.90
14682;DHT22;7429;52.498;13.480;2022-11-10T16:28:47;12.00;99.90
14682;DHT22;7429;52.498;13.480;2022-11-10T16:32:10;11.90;99.90
14682;DHT22;7429;52.498;13.480;2022-11-10T16:35:32;11.80;99.90
14682;DHT22;7429;52.498;13.480;2022-11-10T16:38:54;11.70;99.90
14682;DHT22;7429;52.498;13.480;2022-11-10T16:42:17;11.70;99.90
14682;DHT22;7429;52.498;13.480;2022-11-10T16:45:41;11.60;99.90
14682;DHT22;7429;52.498;13.480;2022-11-10T16:49:04;11.50;99.90
14682;DHT22;7429;52.498;13.480;2022-11-10T16:52:27;11.40;99.90
14682;DHT22;7429;52.498;13.480;2022-11-10T16:55:49;11.30;99.90
14682;DHT22;7429;52.498;13.480;2022-11-10T16:59:12;11.30;99.90
14682;DHT22;7429;52.498;13.480;2022-11-10T17:02:34;11.20;99.90
14682;DHT22;7429;52.498;13.480;2022-11-10T17:05:56;11.10;99.90
14682;DHT22;7429;52.498;13.480;2022-11-10T17:09:21;11.00;99.90
14682;DHT22;7429;52.498;13.480;2022-11-10T17:12:45;11.00;99.90
14682;DHT22;7429;52.498;13.480;2022-11-10T17:16:24;10.90;99.90
14682;DHT22;7429;52.498;13.480;2022-11-10T17:19:48;10.90;99.90
14682;DHT22;7429;52.498;13.480;2022-11-10T17:23:12;10.90;99.90
14682;DHT22;7429;52.498;13.480;2022-11-10T17:26:35;11.10;99.90
14682;DHT22;7429;52.498;13.480;2022-11-10T17:29:56;11.20;99.90
14682;DHT22;7429;52.498;13.480;2022-11-10T17:33:19;11.30;99.90
14682;DHT22;7429;52.498;13.480;2022-11-10T17:36:41;11.40;99.90
14682;DHT22;7429;52.498;13.480;2022-11-10T17:40:14;11.40;99.90
14682;DHT22;7429;52.498;13.480;2022-11-10T17:43:38;11.50;99.90
14682;DHT22;7429;52.498;13.480;2022-11-10T17:47:07;11.60;99.90
14682;DHT22;7429;52.498;13.480;2022-11-10T17:50:30;11.70;99.90
14682;DHT22;7429;52.498;13.480;2022-11-10T17:53:52;11.70;99.90
14682;DHT22;7429;52.498;13.480;2022-11-10T17:57:14;11.80;99.90
14682;DHT22;7429;52.498;13.480;2022-11-10T18:00:36;11.80;99.90
14682;DHT22;7429;52.498;13.480;2022-11-10T18:03:58;11.80;99.90
14682;DHT22;7429;52.498;13.480;2022-11-10T18:07:21;11.80;99.90
14682;DHT22;7429;52.498;13.480;2022-11-10T18:10:47;11.80;99.90
14682;DHT22;7429;52.498;13.480;2022-11-10T18:14:10;11.80;99.90
14682;DHT22;7429;52.498;13.480;2022-11-10T18:17:32;11.80;99.90
14682;DHT22;7429;52.498;13.480;2022-11-10T18:20:55;11.80;99.90
14682;DHT22;7429;52.498;13.480;2022-11-10T18:24:18;11.90;99.90
14682;DHT22;7429;52.498;13.480;2022-11-10T18:27:40;11.90;99.90
14682;DHT22;7429;52.498;13.480;2022-11-10T18:31:05;12.00;99.90
14682;DHT22;7429;52.498;13.480;2022-11-10T18:34:27;12.10;99.90
14682;DHT22;7429;52.498;13.480;2022-11-10T18:37:49;12.10;99.90
14682;DHT22;7429;52.498;13.480;2022-11-10T18:41:11;12.20;99.90
14682;DHT22;7429;52.498;13.480;2022-11-10T18:44:51;12.20;99.90
14682;DHT22;7429;52.498;13.480;2022-11-10T18:48:14;12.20;99.90
14682;DHT22;7429;52.498;13.480;2022-11-10T18:51:35;12.20;99.90
14682;DHT22;7429;52.498;13.480;2022-11-10T18:54:57;12.20;99.90
14682;DHT22;7429;52.498;13.480;2022-11-10T18:58:20;12.20;99.90
14682;DHT22;7429;52.498;13.480;2022-11-10T19:01:42;12.20;99.90
14682;DHT22;7429;52.498;13.480;2022-11-10T19:05:04;12.20;99.90
14682;DHT22;7429;52.498;13.480;2022-11-10T19:08:27;12.20;99.90
14682;DHT22;7429;52.498;13.480;2022-11-10T19:11:49;12.20;99.90
14682;DHT22;7429;52.498;13.480;2022-11-10T19:15:12;12.30;99.90
14682;DHT22;7429;52.498;13.480;2022-11-10T19:18:33;12.30;99.90
14682;DHT22;7429;52.498;13.480;2022-11-10T19:21:55;12.30;99.90
14682;DHT22;7429;52.498;13.480;2022-11-10T19:25:18;12.30;99.90
14682;DHT22;7429;52.498;13.480;2022-11-10T19:28:40;12.30;99.90
14682;DHT22;7429;52.498;13.480;2022-11-10T19:32:04;12.20;99.90
14682;DHT22;7429;52.498;13.480;2022-11-10T19:35:26;12.20;99.90
14682;DHT22;7429;52.498;13.480;2022-11-10T19:38:48;12.20;99.90
14682;DHT22;7429;52.498;13.480;2022-11-10T19:42:09;12.20;99.90
14682;DHT22;7429;52.498;13.480;2022-11-10T19:45:33;12.20;99.90
14682;DHT22;7429;52.498;13.480;2022-11-10T19:48:56;12.20;99.90
14682;DHT22;7429;52.498;13.480;2022-11-10T19:52:18;12.20;99.90
14682;DHT22;7429;52.498;13.480;2022-11-10T19:55:40;12.20;99.90
14682;DHT22;7429;52.498;13.480;2022-11-10T19:59:02;12.30;99.90
14682;DHT22;7429;52.498;13.480;2022-11-10T20:02:23;12.30;99.90
14682;DHT22;7429;52.498;13.480;2022-11-10T20:05:46;12.30;99.90
14682;DHT22;7429;52.498;13.480;2022-11-10T20:09:08;12.30;99.90
14682;DHT22;7429;52.498;13.480;2022-11-10T20:12:30;12.40;99.90
14682;DHT22;7429;52.498;13.480;2022-11-10T20:15:51;12.40;99.90
14682;DHT22;7429;52.498;13.480;2022-11-10T20:19:12;12.30;99.90
14682;DHT22;7429;52.498;13.480;2022-11-10T20:22:35;12.40;99.90
14682;DHT22;7429;52.498;13.480;2022-11-10T20:26:02;12.40;99.90
14682;DHT22;7429;52.498;13.480;2022-11-10T20:29:25;12.40;99.90
14682;DHT22;7429;52.498;13.480;2022-11-10T20:32:48;12.40;99.90
14682;DHT22;7429;52.498;13.480;2022-11-10T20:36:11;12.40;99.90
14682;DHT22;7429;52.498;13.480;2022-11-10T20:39:41;12.50;99.90
14682;DHT22;7429;52.498;13.480;2022-11-10T20:43:03;12.50;99.90
14682;DHT22;7429;52.498;13.480;2022-11-10T20:46:25;12.50;99.90
14682;DHT22;7429;52.498;13.480;2022-11-10T20:50:08;12.50;99.90
14682;DHT22;7429;52.498;13.480;2022-11-10T20:53:37;12.50;99.90
14682;DHT22;7429;52.498;13.480;2022-11-10T20:57:00;12.50;99.90
14682;DHT22;7429;52.498;13.480;2022-11-10T21:00:22;12.50;99.90
14682;DHT22;7429;52.498;13.480;2022-11-10T21:03:43;12.50;99.90
14682;DHT22;7429;52.498;13.480;2022-11-10T21:07:05;12.40;99.90
14682;DHT22;7429;52.498;13.480;2022-11-10T21:10:26;12.40;99.90
14682;DHT22;7429;52.498;13.480;2022-11-10T21:13:49;12.40;99.90
14682;DHT22;7429;52.498;13.480;2022-11-10T21:17:11;12.40;99.90
14682;DHT22;7429;52.498;13.480;2022-11-10T21:20:33;12.40;99.90
14682;DHT22;7429;52.498;13.480;2022-11-10T21:23:54;12.40;99.90
14682;DHT22;7429;52.498;13.480;2022-11-10T21:27:17;12.40;99.90
14682;DHT22;7429;52.498;13.480;2022-11-10T21:30:41;12.40;99.90
14682;DHT22;7429;52.498;13.480;2022-11-10T21:34:02;12.40;99.90
14682;DHT22;7429;52.498;13.480;2022-11-10T21:37:24;12.40;99.90